Time;durP1;ratioP1;P1;durP2;ratioP2;P2;SDS_P1;SDS_P2;PMS_P1;PMS_P2;Temp;Humidity;BMP_temperature;BMP_pressure;BME280_temperature;BME280_humidity;BME280_pressure;Samples;Min_cycle;Max_cycle;Signal;HPM_P1;HPM_P2
2022/06/06 00:01:57;;;;;;;;;;;21.70;55.10;;;;;;486153;244;1232;-41
2022/06/06 00:03:58;;;;;;;;;;;21.70;55.10;;;;;;486193;244;1254;-41
2022/06/06 00:06:00;;;;;;;;;;;21.80;55.10;;;;;;486560;244;1411;-41
2022/06/06 00:08:01;;;;;;;;;;;21.70;55.10;;;;;;486536;244;1206;-41
2022/06/06 00:10:03;;;;;;;;;;;21.80;55.10;;;;;;486513;244;2128;-41
2022/06/06 00:12:04;;;;;;;;;;;21.80;55.00;;;;;;486426;244;1158;-41
2022/06/06 00:14:05;;;;;;;;;;;21.80;55.00;;;;;;486164;244;1168;-41
2022/06/06 00:16:07;;;;;;;;;;;21.80;55.00;;;;;;486165;244;1228;-41
2022/06/06 00:18:08;;;;;;;;;;;21.80;55.00;;;;;;486642;244;1028;-41
2022/06/06 00:20:09;;;;;;;;;;;21.80;55.10;;;;;;486590;244;1374;-41
2022/06/06 00:22:11;;;;;;;;;;;21.80;55.10;;;;;;486474;244;1063;-41
2022/06/06 00:24:12;;;;;;;;;;;21.80;55.00;;;;;;486634;244;1048;-41
2022/06/06 00:26:13;;;;;;;;;;;21.70;55.10;;;;;;486264;244;1193;-41
2022/06/06 00:28:15;;;;;;;;;;;21.70;55.10;;;;;;486156;244;1076;-41
2022/06/06 00:30:16;;;;;;;;;;;21.70;55.10;;;;;;486316;244;2120;-41
2022/06/06 00:34:52;;;;;;;;;;;21.80;55.10;;;;;;486646;245;1052;-41
2022/06/06 00:36:54;;;;;;;;;;;21.70;55.10;;;;;;486402;244;1052;-41
2022/06/06 00:38:55;;;;;;;;;;;21.80;55.10;;;;;;486207;244;1205;-41
2022/06/06 00:40:57;;;;;;;;;;;21.80;55.00;;;;;;486363;244;1270;-41
2022/06/06 00:42:57;;;;;;;;;;;21.80;55.10;;;;;;486059;245;2405;-41
2022/06/06 00:44:59;;;;;;;;;;;21.80;55.20;;;;;;486182;244;1116;-41
2022/06/06 00:47:00;;;;;;;;;;;21.80;55.10;;;;;;486247;244;1505;-41
2022/06/06 00:49:01;;;;;;;;;;;21.80;55.10;;;;;;486526;244;2124;-41
2022/06/06 00:51:03;;;;;;;;;;;21.80;55.00;;;;;;486152;244;1090;-41
2022/06/06 00:53:04;;;;;;;;;;;21.80;55.00;;;;;;486168;244;1232;-41
2022/06/06 00:55:05;;;;;;;;;;;21.80;55.00;;;;;;486575;244;1500;-41
2022/06/06 00:57:07;;;;;;;;;;;21.70;55.10;;;;;;486192;244;1223;-41
2022/06/06 00:59:08;;;;;;;;;;;21.70;55.10;;;;;;486491;244;1225;-41
2022/06/06 01:01:09;;;;;;;;;;;21.70;55.20;;;;;;486350;244;1289;-41
2022/06/06 01:03:11;;;;;;;;;;;21.80;55.10;;;;;;486232;244;1070;-41
2022/06/06 01:05:12;;;;;;;;;;;21.70;55.10;;;;;;486495;244;1081;-41
2022/06/06 01:07:13;;;;;;;;;;;21.70;55.20;;;;;;486107;244;1068;-41
2022/06/06 01:09:15;;;;;;;;;;;21.70;55.10;;;;;;486128;244;2155;-41
2022/06/06 01:11:16;;;;;;;;;;;21.70;55.20;;;;;;486414;244;1214;-41
2022/06/06 01:13:17;;;;;;;;;;;21.80;55.10;;;;;;486163;244;1099;-41
2022/06/06 01:15:19;;;;;;;;;;;21.80;55.10;;;;;;486301;244;1077;-41
2022/06/06 01:17:20;;;;;;;;;;;21.80;55.10;;;;;;486117;244;1213;-41
2022/06/06 01:19:21;;;;;;;;;;;21.80;55.10;;;;;;486165;244;1033;-41
2022/06/06 01:21:23;;;;;;;;;;;21.80;55.10;;;;;;486575;244;1330;-42
2022/06/06 01:23:24;;;;;;;;;;;21.80;55.20;;;;;;486296;244;1078;-41
2022/06/06 01:25:25;;;;;;;;;;;21.80;55.10;;;;;;486333;244;1246;-41
2022/06/06 01:27:27;;;;;;;;;;;21.80;55.10;;;;;;486107;244;1209;-41
2022/06/06 01:29:28;;;;;;;;;;;21.80;55.10;;;;;;486150;244;2187;-41
2022/06/06 01:31:30;;;;;;;;;;;21.80;55.10;;;;;;486387;244;1082;-41
2022/06/06 01:33:31;;;;;;;;;;;21.80;55.10;;;;;;486237;244;1081;-41
2022/06/06 01:35:32;;;;;;;;;;;21.70;55.00;;;;;;486206;244;1287;-41
2022/06/06 01:37:34;;;;;;;;;;;21.80;55.20;;;;;;486125;244;1146;-41
2022/06/06 01:39:35;;;;;;;;;;;21.70;55.10;;;;;;486156;244;1277;-41
2022/06/06 01:41:36;;;;;;;;;;;21.70;55.20;;;;;;486197;244;1230;-41
2022/06/06 01:43:38;;;;;;;;;;;21.70;55.20;;;;;;486514;244;1225;-41
2022/06/06 01:45:39;;;;;;;;;;;21.80;55.20;;;;;;486621;244;1231;-41
2022/06/06 01:47:40;;;;;;;;;;;21.80;55.10;;;;;;486406;244;1201;-41
2022/06/06 01:49:42;;;;;;;;;;;21.80;55.10;;;;;;486463;244;2127;-41
2022/06/06 01:51:43;;;;;;;;;;;21.80;55.10;;;;;;486252;244;1196;-41
2022/06/06 01:53:45;;;;;;;;;;;21.80;55.20;;;;;;486582;244;1212;-41
2022/06/06 01:55:46;;;;;;;;;;;21.70;55.10;;;;;;486166;244;1062;-41
2022/06/06 01:57:47;;;;;;;;;;;21.80;55.20;;;;;;486292;244;1149;-41
2022/06/06 01:59:48;;;;;;;;;;;21.80;55.10;;;;;;486533;244;980;-41
2022/06/06 02:01:49;;;;;;;;;;;21.80;55.20;;;;;;486353;244;1075;-41
2022/06/06 02:03:51;;;;;;;;;;;21.80;55.20;;;;;;486204;244;1174;-41
2022/06/06 02:05:52;;;;;;;;;;;21.80;55.10;;;;;;486088;244;1416;-41
2022/06/06 02:07:54;;;;;;;;;;;21.80;55.20;;;;;;486565;244;1052;-41
2022/06/06 02:09:55;;;;;;;;;;;21.80;55.10;;;;;;486352;244;2132;-41
2022/06/06 02:11:56;;;;;;;;;;;21.70;55.20;;;;;;486461;244;1428;-41
2022/06/06 02:13:58;;;;;;;;;;;21.70;55.10;;;;;;486654;244;1205;-41
2022/06/06 02:16:00;;;;;;;;;;;21.80;55.10;;;;;;486665;244;1283;-41
2022/06/06 02:18:00;;;;;;;;;;;21.70;55.10;;;;;;486599;245;2330;-41
2022/06/06 02:20:04;;;;;;;;;;;21.70;55.10;;;;;;486201;244;1244;-41
2022/06/06 02:22:04;;;;;;;;;;;21.80;55.20;;;;;;486018;245;1961;-41
2022/06/06 02:24:05;;;;;;;;;;;21.70;55.20;;;;;;486519;244;1133;-41
2022/06/06 02:26:06;;;;;;;;;;;21.70;55.20;;;;;;486191;244;1240;-41
2022/06/06 02:28:07;;;;;;;;;;;21.80;55.10;;;;;;486130;244;1338;-41
2022/06/06 02:30:09;;;;;;;;;;;21.70;55.20;;;;;;486468;244;2136;-42
2022/06/06 02:32:11;;;;;;;;;;;21.80;55.20;;;;;;486123;244;1457;-41
2022/06/06 02:34:12;;;;;;;;;;;21.70;55.20;;;;;;486193;244;2221;-41
2022/06/06 02:36:13;;;;;;;;;;;21.70;55.20;;;;;;486574;244;1247;-41
2022/06/06 02:38:14;;;;;;;;;;;21.70;55.10;;;;;;486470;244;1198;-41
2022/06/06 02:40:16;;;;;;;;;;;21.80;55.20;;;;;;486644;244;1229;-41
2022/06/06 02:42:17;;;;;;;;;;;21.70;55.10;;;;;;486477;244;1245;-41
2022/06/06 02:44:19;;;;;;;;;;;21.70;55.20;;;;;;486727;244;990;-41
2022/06/06 02:46:20;;;;;;;;;;;21.70;55.20;;;;;;486318;244;2141;-41
2022/06/06 02:48:21;;;;;;;;;;;21.80;55.20;;;;;;486407;244;1022;-41
2022/06/06 02:50:22;;;;;;;;;;;21.80;55.10;;;;;;486645;244;2112;-41
2022/06/06 02:52:24;;;;;;;;;;;21.80;55.10;;;;;;486123;244;1222;-41
2022/06/06 02:54:25;;;;;;;;;;;21.70;55.10;;;;;;486343;244;1137;-41
2022/06/06 02:56:27;;;;;;;;;;;21.80;55.20;;;;;;486542;241;1190;-41
2022/06/06 02:58:28;;;;;;;;;;;21.80;55.10;;;;;;486291;244;2118;-41
2022/06/06 03:00:29;;;;;;;;;;;21.80;55.10;;;;;;486501;244;1042;-41
2022/06/06 03:02:30;;;;;;;;;;;21.70;55.10;;;;;;486374;244;1102;-41
2022/06/06 03:04:32;;;;;;;;;;;21.80;55.10;;;;;;486657;244;1039;-41
2022/06/06 03:06:33;;;;;;;;;;;21.80;55.20;;;;;;486212;244;1151;-41
2022/06/06 03:08:35;;;;;;;;;;;21.80;55.20;;;;;;486584;244;1054;-41
2022/06/06 03:10:36;;;;;;;;;;;21.80;55.00;;;;;;486667;244;2186;-41
2022/06/06 03:12:37;;;;;;;;;;;21.80;55.00;;;;;;486429;244;1418;-41
2022/06/06 03:14:38;;;;;;;;;;;21.80;55.10;;;;;;486514;244;1089;-41
2022/06/06 03:21:34;;;;;;;;;;;21.80;55.10;;;;;;487249;240;1201;-41
2022/06/06 03:23:35;;;;;;;;;;;21.80;55.20;;;;;;496132;240;1286;-41
2022/06/06 03:25:37;;;;;;;;;;;21.80;55.10;;;;;;496156;240;1321;-41
2022/06/06 03:27:39;;;;;;;;;;;21.70;55.10;;;;;;496038;240;1153;-41
2022/06/06 03:29:40;;;;;;;;;;;21.80;55.10;;;;;;496109;240;2206;-41
2022/06/06 03:31:41;;;;;;;;;;;21.80;55.20;;;;;;496242;240;1154;-41
2022/06/06 03:33:43;;;;;;;;;;;21.80;55.10;;;;;;496448;240;1215;-41
2022/06/06 03:35:46;;;;;;;;;;;21.80;55.20;;;;;;496543;240;1227;-41
2022/06/06 03:37:45;;;;;;;;;;;21.70;55.20;;;;;;495885;240;1351;-41
2022/06/06 03:39:47;;;;;;;;;;;21.70;55.20;;;;;;496099;240;1270;-41
2022/06/06 03:41:48;;;;;;;;;;;21.70;55.20;;;;;;496056;240;1234;-41
2022/06/06 03:43:49;;;;;;;;;;;21.70;55.20;;;;;;496342;240;1143;-41
2022/06/06 03:45:51;;;;;;;;;;;21.80;55.20;;;;;;496290;240;1540;-41
2022/06/06 03:47:52;;;;;;;;;;;21.70;55.20;;;;;;496205;240;1581;-41
2022/06/06 03:49:53;;;;;;;;;;;21.80;55.10;;;;;;496240;240;2126;-41
2022/06/06 03:51:59;;;;;;;;;;;21.70;55.10;;;;;;496064;240;1193;-41
2022/06/06 03:53:57;;;;;;;;;;;21.80;55.20;;;;;;496188;240;2162;-41
2022/06/06 03:55:58;;;;;;;;;;;21.80;55.20;;;;;;496579;240;1255;-41
2022/06/06 03:57:59;;;;;;;;;;;21.80;55.20;;;;;;496136;240;1263;-41
2022/06/06 04:00:01;;;;;;;;;;;21.80;55.10;;;;;;496174;240;1108;-41
2022/06/06 04:02:02;;;;;;;;;;;21.80;55.10;;;;;;496095;240;1141;-41
2022/06/06 04:04:03;;;;;;;;;;;21.80;55.10;;;;;;496494;240;1050;-41
2022/06/06 04:06:05;;;;;;;;;;;21.80;55.00;;;;;;496151;240;1465;-42
2022/06/06 04:08:06;;;;;;;;;;;21.80;55.10;;;;;;496567;240;1169;-41
2022/06/06 04:10:07;;;;;;;;;;;21.80;55.10;;;;;;496617;240;2178;-41
2022/06/06 04:12:09;;;;;;;;;;;21.80;55.20;;;;;;496251;240;1162;-41
2022/06/06 04:14:10;;;;;;;;;;;21.80;55.20;;;;;;496320;240;1177;-41
2022/06/06 04:16:11;;;;;;;;;;;21.80;55.00;;;;;;496605;240;1044;-41
2022/06/06 04:18:13;;;;;;;;;;;21.70;55.10;;;;;;496402;240;994;-41
2022/06/06 04:20:14;;;;;;;;;;;21.70;55.10;;;;;;496667;240;1033;-41
2022/06/06 04:22:15;;;;;;;;;;;21.70;55.20;;;;;;496138;240;1317;-41
2022/06/06 04:24:17;;;;;;;;;;;21.80;55.20;;;;;;496152;240;1165;-41
2022/06/06 04:26:18;;;;;;;;;;;21.80;55.20;;;;;;496573;240;1192;-41
2022/06/06 04:28:19;;;;;;;;;;;21.80;55.20;;;;;;496392;240;1378;-41
2022/06/06 04:30:21;;;;;;;;;;;21.80;55.20;;;;;;496189;240;2131;-41
2022/06/06 04:32:22;;;;;;;;;;;21.70;55.20;;;;;;496155;240;1320;-41
2022/06/06 04:34:23;;;;;;;;;;;21.80;55.20;;;;;;496646;240;1337;-41
2022/06/06 04:36:25;;;;;;;;;;;21.70;55.20;;;;;;496283;240;1070;-41
2022/06/06 04:38:26;;;;;;;;;;;21.80;55.10;;;;;;496097;240;1028;-41
2022/06/06 04:40:35;;;;;;;;;;;21.80;55.20;;;;;;496307;240;980;-41
2022/06/06 04:42:29;;;;;;;;;;;21.80;55.00;;;;;;495294;240;2234;-41
2022/06/06 04:44:31;;;;;;;;;;;21.70;55.10;;;;;;496143;240;1252;-41
2022/06/06 04:46:32;;;;;;;;;;;21.80;55.20;;;;;;496582;240;1065;-42
2022/06/06 04:48:34;;;;;;;;;;;21.80;55.20;;;;;;496158;240;1153;-41
2022/06/06 04:50:35;;;;;;;;;;;21.70;55.20;;;;;;496600;240;2118;-41
2022/06/06 04:52:36;;;;;;;;;;;21.80;55.20;;;;;;496124;240;1357;-41
2022/06/06 04:54:39;;;;;;;;;;;21.80;55.10;;;;;;496609;240;1231;-41
2022/06/06 04:56:39;;;;;;;;;;;21.70;55.20;;;;;;495993;240;2037;-41
2022/06/06 04:58:40;;;;;;;;;;;21.70;55.20;;;;;;496479;240;1601;-41
2022/06/06 05:00:42;;;;;;;;;;;21.80;55.20;;;;;;496629;240;1214;-41
2022/06/06 05:02:43;;;;;;;;;;;21.80;55.20;;;;;;496641;240;1152;-41
2022/06/06 05:04:44;;;;;;;;;;;21.70;55.20;;;;;;496679;240;1029;-41
2022/06/06 05:06:45;;;;;;;;;;;21.70;55.20;;;;;;496630;240;997;-41
2022/06/06 05:08:47;;;;;;;;;;;21.70;55.10;;;;;;496656;240;1055;-41
2022/06/06 05:10:48;;;;;;;;;;;21.80;55.20;;;;;;496625;240;2125;-41
2022/06/06 05:12:49;;;;;;;;;;;21.70;55.20;;;;;;496157;240;1061;-41
2022/06/06 05:14:51;;;;;;;;;;;21.80;55.20;;;;;;496314;240;1142;-41
2022/06/06 05:16:52;;;;;;;;;;;21.80;55.20;;;;;;496627;240;1186;-41
2022/06/06 05:18:53;;;;;;;;;;;21.70;55.20;;;;;;496229;240;1061;-41
2022/06/06 05:20:55;;;;;;;;;;;21.70;55.20;;;;;;496080;240;1179;-41
2022/06/06 05:22:56;;;;;;;;;;;21.80;55.20;;;;;;496615;240;1213;-41
2022/06/06 05:24:57;;;;;;;;;;;21.80;55.20;;;;;;496637;240;1711;-41
2022/06/06 05:26:59;;;;;;;;;;;21.70;55.20;;;;;;496577;240;1158;-41
2022/06/06 05:29:00;;;;;;;;;;;21.80;55.20;;;;;;496222;240;1224;-41
2022/06/06 05:31:01;;;;;;;;;;;21.70;55.20;;;;;;496599;240;2126;-41
2022/06/06 05:33:03;;;;;;;;;;;21.80;55.20;;;;;;496168;240;1058;-41
2022/06/06 05:35:04;;;;;;;;;;;21.70;55.20;;;;;;496194;240;1063;-41
2022/06/06 05:37:05;;;;;;;;;;;21.80;55.30;;;;;;496034;240;1178;-41
2022/06/06 05:39:06;;;;;;;;;;;21.70;55.20;;;;;;496576;240;1213;-41
2022/06/06 05:41:08;;;;;;;;;;;21.70;55.30;;;;;;496682;240;1191;-41
2022/06/06 05:43:09;;;;;;;;;;;21.70;55.20;;;;;;496663;240;1058;-41
2022/06/06 05:45:10;;;;;;;;;;;21.80;55.10;;;;;;496171;240;1254;-41
2022/06/06 05:47:12;;;;;;;;;;;21.70;55.20;;;;;;496252;240;1137;-41
2022/06/06 05:49:13;;;;;;;;;;;21.70;55.20;;;;;;496168;240;997;-41
2022/06/06 05:51:14;;;;;;;;;;;21.70;55.20;;;;;;496622;240;2106;-41
2022/06/06 05:53:16;;;;;;;;;;;21.80;55.30;;;;;;496197;240;1039;-41
2022/06/06 05:55:17;;;;;;;;;;;21.70;55.30;;;;;;496722;240;1060;-41
2022/06/06 05:57:18;;;;;;;;;;;21.70;55.30;;;;;;496289;240;1346;-41
2022/06/06 05:59:20;;;;;;;;;;;21.70;55.40;;;;;;496583;240;1075;-41
2022/06/06 06:01:21;;;;;;;;;;;21.70;55.40;;;;;;496620;240;1231;-41
2022/06/06 06:03:22;;;;;;;;;;;21.70;55.30;;;;;;496665;240;1316;-41
2022/06/06 06:05:24;;;;;;;;;;;21.70;55.30;;;;;;496646;240;1049;-41
2022/06/06 06:07:25;;;;;;;;;;;21.70;55.40;;;;;;496134;240;1329;-41
2022/06/06 06:09:26;;;;;;;;;;;21.70;55.40;;;;;;496676;240;1212;-41
2022/06/06 06:11:28;;;;;;;;;;;21.70;55.30;;;;;;496433;240;2127;-42
2022/06/06 06:13:29;;;;;;;;;;;21.70;55.40;;;;;;496597;240;1224;-41
2022/06/06 06:15:30;;;;;;;;;;;21.60;55.40;;;;;;496323;240;1210;-41
2022/06/06 06:17:33;;;;;;;;;;;21.60;55.50;;;;;;496543;240;1207;-41
2022/06/06 06:19:33;;;;;;;;;;;21.70;55.50;;;;;;496077;240;1420;-41
2022/06/06 06:21:34;;;;;;;;;;;21.70;55.40;;;;;;496443;240;1184;-41
2022/06/06 06:23:36;;;;;;;;;;;21.70;55.40;;;;;;496665;240;1550;-41
2022/06/06 06:25:37;;;;;;;;;;;21.70;55.40;;;;;;496682;240;1068;-41
2022/06/06 06:27:41;;;;;;;;;;;21.70;55.40;;;;;;496160;240;1064;-41
2022/06/06 06:29:41;;;;;;;;;;;21.70;55.50;;;;;;495965;240;2404;-41
2022/06/06 06:31:42;;;;;;;;;;;21.70;55.40;;;;;;496251;240;2110;-41
2022/06/06 06:33:43;;;;;;;;;;;21.70;55.40;;;;;;496648;240;1386;-41
2022/06/06 06:35:45;;;;;;;;;;;21.70;55.40;;;;;;496617;240;1052;-41
2022/06/06 06:37:46;;;;;;;;;;;21.70;55.40;;;;;;496375;240;1259;-41
2022/06/06 06:39:47;;;;;;;;;;;21.70;55.40;;;;;;496617;240;1070;-41
2022/06/06 06:41:49;;;;;;;;;;;21.70;55.40;;;;;;496052;240;1155;-41
2022/06/06 06:43:50;;;;;;;;;;;21.70;55.40;;;;;;496107;240;1658;-41
2022/06/06 06:45:51;;;;;;;;;;;21.70;55.40;;;;;;496308;240;1244;-41
2022/06/06 06:47:52;;;;;;;;;;;21.70;55.50;;;;;;496079;240;1198;-41
2022/06/06 06:49:54;;;;;;;;;;;21.70;55.60;;;;;;496615;240;1284;-41
2022/06/06 06:51:55;;;;;;;;;;;21.70;55.70;;;;;;496158;240;2130;-41
2022/06/06 06:53:56;;;;;;;;;;;21.70;55.60;;;;;;496592;240;1226;-41
2022/06/06 06:55:58;;;;;;;;;;;21.70;55.60;;;;;;496606;240;1603;-41
2022/06/06 06:57:59;;;;;;;;;;;21.70;55.50;;;;;;496647;240;1432;-41
2022/06/06 07:00:01;;;;;;;;;;;21.70;55.40;;;;;;496327;240;1362;-41
2022/06/06 07:09:04;;;;;;;;;;;21.70;55.60;;;;;;496562;240;1414;-41
2022/06/06 07:11:06;;;;;;;;;;;21.70;55.60;;;;;;496619;240;2169;-41
2022/06/06 07:13:07;;;;;;;;;;;21.70;55.60;;;;;;496149;240;1141;-41
2022/06/06 07:15:08;;;;;;;;;;;21.70;55.50;;;;;;496629;240;1316;-41
2022/06/06 07:17:10;;;;;;;;;;;21.70;55.50;;;;;;496047;240;1198;-41
2022/06/06 07:19:12;;;;;;;;;;;21.70;55.60;;;;;;496626;240;1039;-41
2022/06/06 07:21:13;;;;;;;;;;;21.70;55.60;;;;;;496468;240;1248;-41
2022/06/06 07:23:14;;;;;;;;;;;21.70;55.60;;;;;;496611;240;1184;-41
2022/06/06 07:25:15;;;;;;;;;;;21.70;55.60;;;;;;496678;240;1020;-41
2022/06/06 07:27:17;;;;;;;;;;;21.80;55.60;;;;;;496300;240;964;-41
2022/06/06 07:29:18;;;;;;;;;;;21.70;55.60;;;;;;496295;240;1039;-41
2022/06/06 07:31:20;;;;;;;;;;;21.70;55.70;;;;;;496270;240;2208;-41
2022/06/06 07:33:21;;;;;;;;;;;21.70;55.60;;;;;;496639;240;1045;-41
2022/06/06 07:35:22;;;;;;;;;;;21.70;55.60;;;;;;496574;240;1099;-41
2022/06/06 07:37:24;;;;;;;;;;;21.70;55.70;;;;;;496566;240;1550;-41
2022/06/06 07:39:25;;;;;;;;;;;21.60;55.70;;;;;;496612;240;1184;-41
2022/06/06 07:41:26;;;;;;;;;;;21.70;55.70;;;;;;496413;240;1199;-41
2022/06/06 07:43:28;;;;;;;;;;;21.70;55.60;;;;;;496553;240;1203;-41
2022/06/06 07:45:29;;;;;;;;;;;21.70;55.60;;;;;;496103;240;1908;-41
2022/06/06 07:47:30;;;;;;;;;;;21.70;55.70;;;;;;496472;240;1203;-41
2022/06/06 07:49:32;;;;;;;;;;;21.60;55.80;;;;;;496595;240;1289;-41
2022/06/06 07:51:33;;;;;;;;;;;21.70;55.70;;;;;;496569;240;2117;-41
2022/06/06 07:53:34;;;;;;;;;;;21.70;55.70;;;;;;496603;240;1193;-41
2022/06/06 07:55:36;;;;;;;;;;;21.70;55.70;;;;;;496125;240;1236;-41
2022/06/06 07:57:37;;;;;;;;;;;21.70;55.80;;;;;;496565;240;1385;-41
2022/06/06 07:59:38;;;;;;;;;;;21.70;55.80;;;;;;496181;240;1334;-41
2022/06/06 08:01:40;;;;;;;;;;;21.70;55.70;;;;;;496163;240;1192;-41
2022/06/06 08:03:41;;;;;;;;;;;21.70;55.70;;;;;;496321;240;1312;-41
2022/06/06 08:05:43;;;;;;;;;;;21.70;55.80;;;;;;496566;240;1048;-41
2022/06/06 08:07:44;;;;;;;;;;;21.70;55.80;;;;;;496204;240;1049;-41
2022/06/06 08:09:46;;;;;;;;;;;21.70;55.90;;;;;;496574;240;1197;-41
2022/06/06 08:11:47;;;;;;;;;;;21.70;55.80;;;;;;496497;240;2119;-41
2022/06/06 08:13:48;;;;;;;;;;;21.70;55.80;;;;;;496636;240;1085;-41
2022/06/06 08:15:50;;;;;;;;;;;21.70;55.80;;;;;;496573;236;1303;-41
2022/06/06 08:17:51;;;;;;;;;;;21.70;55.80;;;;;;496303;240;1101;-41
2022/06/06 08:19:52;;;;;;;;;;;21.70;55.90;;;;;;496377;240;1086;-41
2022/06/06 08:21:54;;;;;;;;;;;21.70;55.90;;;;;;496598;240;1256;-41
2022/06/06 08:23:56;;;;;;;;;;;21.60;55.90;;;;;;496644;240;1043;-41
2022/06/06 08:25:57;;;;;;;;;;;21.70;55.90;;;;;;496630;240;1263;-41
2022/06/06 08:27:58;;;;;;;;;;;21.70;55.80;;;;;;496190;240;1341;-41
2022/06/06 08:29:59;;;;;;;;;;;21.70;55.80;;;;;;496612;240;1244;-41
2022/06/06 08:32:01;;;;;;;;;;;21.70;55.80;;;;;;496290;240;2182;-41
2022/06/06 08:34:02;;;;;;;;;;;21.60;56.00;;;;;;496655;240;1215;-41
2022/06/06 08:36:04;;;;;;;;;;;21.60;55.90;;;;;;496557;240;1194;-41
2022/06/06 08:38:05;;;;;;;;;;;21.60;55.90;;;;;;496117;240;1142;-41
2022/06/06 08:40:06;;;;;;;;;;;21.70;56.00;;;;;;496608;240;1135;-41
2022/06/06 08:42:08;;;;;;;;;;;21.70;56.00;;;;;;496620;240;1187;-41
2022/06/06 08:44:09;;;;;;;;;;;21.60;56.00;;;;;;496149;240;1230;-41
2022/06/06 08:46:10;;;;;;;;;;;21.60;56.00;;;;;;496614;240;1343;-41
2022/06/06 08:48:12;;;;;;;;;;;21.70;56.00;;;;;;496640;240;1254;-41
2022/06/06 08:52:32;;;;;;;;;;;21.60;55.90;;;;;;496408;240;2121;-41
2022/06/06 08:54:34;;;;;;;;;;;21.60;56.00;;;;;;496642;240;1059;-41
2022/06/06 08:56:35;;;;;;;;;;;21.60;56.00;;;;;;496024;240;1555;-41
2022/06/06 08:58:36;;;;;;;;;;;21.70;55.90;;;;;;496603;240;1147;-41
2022/06/06 09:00:38;;;;;;;;;;;21.70;55.90;;;;;;496592;240;1226;-41
2022/06/06 09:02:39;;;;;;;;;;;21.60;55.90;;;;;;496055;240;1333;-41
2022/06/06 09:04:41;;;;;;;;;;;21.70;55.90;;;;;;496090;240;1143;-41
2022/06/06 09:06:42;;;;;;;;;;;21.70;55.80;;;;;;496172;240;1166;-41
2022/06/06 09:08:43;;;;;;;;;;;21.70;55.90;;;;;;496184;240;962;-41
2022/06/06 09:10:45;;;;;;;;;;;21.60;55.90;;;;;;496608;240;986;-41
2022/06/06 09:12:46;;;;;;;;;;;21.60;55.90;;;;;;496173;240;2099;-41
2022/06/06 09:14:47;;;;;;;;;;;21.70;56.00;;;;;;496120;240;1086;-41
2022/06/06 09:16:49;;;;;;;;;;;21.70;55.90;;;;;;496396;236;1287;-41
2022/06/06 09:18:51;;;;;;;;;;;21.70;55.90;;;;;;496291;240;1171;-41
2022/06/06 09:20:51;;;;;;;;;;;21.70;56.00;;;;;;496453;240;2447;-41
2022/06/06 09:22:53;;;;;;;;;;;21.60;56.00;;;;;;496608;240;1205;-41
2022/06/06 09:24:54;;;;;;;;;;;21.70;56.00;;;;;;496164;240;1252;-41
2022/06/06 09:26:55;;;;;;;;;;;21.70;56.10;;;;;;496054;240;1250;-41
2022/06/06 09:28:57;;;;;;;;;;;21.60;56.00;;;;;;496067;240;1218;-41
2022/06/06 09:30:58;;;;;;;;;;;21.60;56.00;;;;;;496270;240;1223;-41
2022/06/06 09:32:59;;;;;;;;;;;21.70;56.10;;;;;;495992;240;2185;-41
2022/06/06 09:35:01;;;;;;;;;;;21.60;56.00;;;;;;496571;240;1292;-41
2022/06/06 09:37:03;;;;;;;;;;;21.60;56.10;;;;;;496361;240;1385;-41
2022/06/06 09:39:03;;;;;;;;;;;21.60;56.10;;;;;;496113;240;2366;-41
2022/06/06 09:41:05;;;;;;;;;;;21.60;56.00;;;;;;496628;240;1187;-41
2022/06/06 09:43:06;;;;;;;;;;;21.60;56.10;;;;;;496642;240;1164;-41
2022/06/06 09:45:09;;;;;;;;;;;21.70;56.10;;;;;;496487;240;1217;-41
2022/06/06 09:47:09;;;;;;;;;;;21.60;56.10;;;;;;496307;240;2501;-41
2022/06/06 09:49:10;;;;;;;;;;;21.60;56.10;;;;;;496130;240;1172;-41
2022/06/06 09:51:12;;;;;;;;;;;21.70;56.00;;;;;;496471;240;1349;-41
2022/06/06 09:53:13;;;;;;;;;;;21.60;56.00;;;;;;496420;240;2106;-41
2022/06/06 10:00:03;;;;;;;;;;;21.70;56.10;;;;;;487174;244;1049;-41
2022/06/06 10:02:05;;;;;;;;;;;21.60;56.10;;;;;;487539;244;1331;-41
2022/06/06 10:04:06;;;;;;;;;;;21.60;56.10;;;;;;487099;245;2363;-41
2022/06/06 10:06:07;;;;;;;;;;;21.60;56.20;;;;;;487188;244;1094;-41
2022/06/06 10:08:09;;;;;;;;;;;21.60;56.20;;;;;;487211;244;1085;-41
2022/06/06 10:10:10;;;;;;;;;;;21.60;56.10;;;;;;487663;244;1279;-41
2022/06/06 10:12:11;;;;;;;;;;;21.70;56.10;;;;;;487569;244;2195;-41
2022/06/06 10:14:12;;;;;;;;;;;21.70;56.00;;;;;;487610;244;1058;-41
2022/06/06 10:16:14;;;;;;;;;;;21.70;56.00;;;;;;487634;244;1340;-41
2022/06/06 10:18:16;;;;;;;;;;;21.70;56.00;;;;;;487174;244;1216;-41
2022/06/06 10:20:17;;;;;;;;;;;21.70;56.00;;;;;;487647;244;1220;-41
2022/06/06 10:22:18;;;;;;;;;;;21.70;56.00;;;;;;487425;244;1076;-41
2022/06/06 10:24:19;;;;;;;;;;;21.60;56.00;;;;;;487167;244;1053;-41
2022/06/06 10:26:20;;;;;;;;;;;21.70;56.20;;;;;;487143;244;1254;-41
2022/06/06 10:28:22;;;;;;;;;;;21.70;56.10;;;;;;487624;244;1052;-41
2022/06/06 10:30:23;;;;;;;;;;;21.70;56.10;;;;;;487648;244;1154;-41
2022/06/06 10:32:24;;;;;;;;;;;21.70;56.10;;;;;;487560;244;2198;-41
2022/06/06 10:34:26;;;;;;;;;;;21.70;56.20;;;;;;487456;244;1015;-41
2022/06/06 10:36:27;;;;;;;;;;;21.70;56.00;;;;;;487204;244;1359;-41
2022/06/06 10:38:28;;;;;;;;;;;21.70;56.00;;;;;;487621;244;1062;-41
2022/06/06 10:40:30;;;;;;;;;;;21.70;56.20;;;;;;487158;243;1278;-41
2022/06/06 10:42:32;;;;;;;;;;;21.70;56.20;;;;;;487122;244;1247;-41
2022/06/06 10:44:32;;;;;;;;;;;21.60;56.10;;;;;;487379;244;1400;-41
2022/06/06 10:46:34;;;;;;;;;;;21.60;56.20;;;;;;487562;244;1248;-41
2022/06/06 10:48:35;;;;;;;;;;;21.60;56.10;;;;;;487241;244;1189;-41
2022/06/06 10:50:36;;;;;;;;;;;21.60;56.10;;;;;;487350;244;1273;-41
2022/06/06 10:52:39;;;;;;;;;;;21.70;56.10;;;;;;487573;244;2189;-41
2022/06/06 10:54:39;;;;;;;;;;;21.70;56.10;;;;;;487102;245;2845;-41
2022/06/06 10:56:41;;;;;;;;;;;21.70;56.20;;;;;;487114;244;1195;-41
2022/06/06 10:58:44;;;;;;;;;;;21.70;56.20;;;;;;487611;244;1178;-41
2022/06/06 11:00:43;;;;;;;;;;;21.60;56.20;;;;;;487441;244;2150;-41
2022/06/06 11:02:45;;;;;;;;;;;21.60;56.10;;;;;;487158;244;1212;-41
2022/06/06 11:04:46;;;;;;;;;;;21.70;56.20;;;;;;487134;244;1405;-41
2022/06/06 11:06:47;;;;;;;;;;;21.70;56.10;;;;;;487039;244;1169;-41
2022/06/06 11:08:49;;;;;;;;;;;21.70;56.10;;;;;;487104;244;1183;-41
2022/06/06 11:10:50;;;;;;;;;;;21.70;56.00;;;;;;487480;244;1341;-41
2022/06/06 11:12:51;;;;;;;;;;;21.70;56.10;;;;;;487538;244;2132;-41
2022/06/06 11:14:53;;;;;;;;;;;21.70;56.10;;;;;;487577;244;1247;-41
2022/06/06 11:16:54;;;;;;;;;;;21.70;56.10;;;;;;487235;244;1182;-41
2022/06/06 11:18:55;;;;;;;;;;;21.70;56.10;;;;;;487229;244;1179;-41
2022/06/06 11:20:57;;;;;;;;;;;21.70;56.20;;;;;;487605;244;1043;-41
2022/06/06 11:22:58;;;;;;;;;;;21.70;56.10;;;;;;487171;244;1154;-41
2022/06/06 11:24:59;;;;;;;;;;;21.70;56.10;;;;;;487360;244;1110;-41
2022/06/06 11:27:01;;;;;;;;;;;21.70;56.20;;;;;;487114;244;1230;-41
2022/06/06 11:29:03;;;;;;;;;;;21.70;56.10;;;;;;487208;244;1301;-41
2022/06/06 11:31:04;;;;;;;;;;;21.70;56.20;;;;;;487549;244;2346;-41
2022/06/06 11:33:05;;;;;;;;;;;21.70;56.20;;;;;;487399;244;2143;-41
2022/06/06 11:35:07;;;;;;;;;;;21.60;56.20;;;;;;487043;244;1293;-41
2022/06/06 11:37:07;;;;;;;;;;;21.70;56.20;;;;;;487261;244;2385;-41
2022/06/06 11:39:09;;;;;;;;;;;21.70;56.20;;;;;;487481;244;1227;-41
2022/06/06 11:41:11;;;;;;;;;;;21.70;56.10;;;;;;487573;244;1223;-41
2022/06/06 11:43:12;;;;;;;;;;;21.70;56.10;;;;;;487092;245;2540;-41
2022/06/06 11:45:13;;;;;;;;;;;21.70;56.10;;;;;;487218;244;1306;-41
2022/06/06 11:47:15;;;;;;;;;;;21.60;56.20;;;;;;487273;244;1334;-41
2022/06/06 11:49:16;;;;;;;;;;;21.60;56.20;;;;;;487361;244;1281;-41
2022/06/06 11:51:17;;;;;;;;;;;21.70;56.20;;;;;;487544;244;1532;-41
2022/06/06 11:53:19;;;;;;;;;;;21.70;56.20;;;;;;487419;244;2186;-41
2022/06/06 11:55:20;;;;;;;;;;;21.70;56.10;;;;;;487116;244;1268;-41
2022/06/06 11:57:22;;;;;;;;;;;21.80;56.10;;;;;;487098;244;1239;-41
2022/06/06 11:59:23;;;;;;;;;;;21.70;56.00;;;;;;487575;244;1236;-41
2022/06/06 12:01:25;;;;;;;;;;;21.60;56.20;;;;;;487581;244;1335;-41
2022/06/06 12:03:26;;;;;;;;;;;21.70;56.20;;;;;;487609;244;1137;-41
2022/06/06 12:05:28;;;;;;;;;;;21.70;56.10;;;;;;487177;244;1330;-41
2022/06/06 12:07:29;;;;;;;;;;;21.70;56.10;;;;;;487320;244;1230;-41
2022/06/06 12:09:30;;;;;;;;;;;21.70;56.10;;;;;;487683;244;1064;-41
2022/06/06 12:11:31;;;;;;;;;;;21.70;56.10;;;;;;487126;244;1363;-41
2022/06/06 12:13:33;;;;;;;;;;;21.70;56.10;;;;;;487413;244;2210;-41
2022/06/06 12:15:34;;;;;;;;;;;21.70;56.10;;;;;;487195;244;1076;-42
2022/06/06 12:17:36;;;;;;;;;;;21.70;56.10;;;;;;487146;244;1198;-41
2022/06/06 12:19:37;;;;;;;;;;;21.60;56.10;;;;;;487208;244;1236;-41